Terminal Aerodrome Forecast
Issued by NWS

Home | Current Version | Previous Version | Text Only | Print | Product List | Glossary On
Versions: 1 2 3 4 5 6 7 8 9 10 11 12 13
000
FTUS45 KLKN 200520
TAFELY
TAF
KELY 200520Z 2006/2106 18008KT P6SM FEW200
     FM201900 21020G32KT P6SM SCT100 BKN150
     FM210500 19010G18KT P6SM SCT070 BKN120=

USA.gov is the U.S. government's official web portal to all federal, state and local government web resources and services.